Time;durP1;ratioP1;P1;durP2;ratioP2;P2;SDS_P1;SDS_P2;PMS_P1;PMS_P2;Temp;Humidity;BMP_temperature;BMP_pressure;BME280_temperature;BME280_humidity;BME280_pressure;Samples;Min_cycle;Max_cycle;Signal;HPM_P1;HPM_P2
2022/03/07 00:00:47;;;;;;;8.80;5.20;;;;;;;-0.73;60.64;99612.80;109227;1277;23515;-55
2022/03/07 00:03:16;;;;;;;8.60;4.40;;;;;;;-0.73;60.40;99612.14;109073;1276;138054;-55
2022/03/07 00:06:04;;;;;;;10.00;4.50;;;;;;;-0.74;60.31;99608.29;109141;1277;22470;-55
2022/03/07 00:08:33;;;;;;;8.50;5.10;;;;;;;-0.75;60.28;99610.17;109092;1277;137432;-55
2022/03/07 00:11:28;;;;;;;11.40;5.20;;;;;;;-0.77;60.34;99608.42;109201;1276;22416;-55
2022/03/07 00:14:16;;;;;;;12.90;5.20;;;;;;;-0.78;60.32;99603.95;109028;1276;140138;-55
2022/03/07 00:16:44;;;;;;;8.00;5.00;;;;;;;-0.79;60.18;99606.00;109207;1276;23218;-55
2022/03/07 00:19:13;;;;;;;10.70;5.70;;;;;;;-0.81;60.02;99601.80;109060;1277;137612;-53
2022/03/07 00:21:47;;;;;;;11.20;6.00;;;;;;;-0.82;60.04;99594.79;109141;1277;22394;-53
2022/03/07 00:24:16;;;;;;;10.30;5.60;;;;;;;-0.82;60.19;99591.70;109103;1277;23298;-53
2022/03/07 00:26:44;;;;;;;11.10;5.70;;;;;;;-0.81;60.29;99580.27;109064;1276;137804;-53
2022/03/07 00:29:32;;;;;;;10.10;5.50;;;;;;;-0.80;60.20;99576.59;109219;1277;22615;-56
2022/03/07 00:32:15;;;;;;;10.30;5.50;;;;;;;-0.81;60.14;99573.78;108956;1277;137440;-53
2022/03/07 00:34:44;;;;;;;9.10;4.70;;;;;;;-0.81;60.15;99574.52;109211;1277;22470;-53
2022/03/07 00:37:32;;;;;;;;;;;;;;;-0.81;60.42;99566.34;109122;1275;137136;-54
2022/03/07 00:40:00;;;;;;;;;;;;;;;-0.82;60.21;99567.67;109221;1277;22618;-53
2022/03/07 00:42:29;;;;;;;5.90;3.40;;;;;;;-0.84;59.96;99564.92;109204;1277;22670;-56
2022/03/07 00:44:57;;;;;;;6.90;3.90;;;;;;;-0.86;60.16;99554.86;109053;1277;137686;-54
2022/03/07 00:47:25;;;;;;;7.70;4.00;;;;;;;-0.86;60.07;99558.42;105060;1277;22577;-54
2022/03/07 00:49:54;;;;;;;7.90;3.50;;;;;;;-0.87;59.92;99551.82;109087;1276;138498;-54
2022/03/07 00:52:22;;;;;;;7.20;3.80;;;;;;;-0.88;60.08;99546.20;109196;1276;22490;-54
2022/03/07 00:54:50;;;;;;;7.90;4.00;;;;;;;-0.89;59.91;99548.48;109180;1277;23393;-54
2022/03/07 00:57:18;;;;;;;8.40;3.50;;;;;;;-0.89;59.89;99547.75;109047;1274;137685;-54
2022/03/07 00:59:46;;;;;;;6.70;3.80;;;;;;;-0.89;60.08;99546.35;109005;1277;22567;-54
2022/03/07 01:02:15;;;;;;;5.10;3.10;;;;;;;-0.89;60.01;99544.54;109012;1277;137674;-54
2022/03/07 01:04:43;;;;;;;5.60;3.40;;;;;;;-0.89;59.82;99540.63;108980;1277;23215;-54
2022/03/07 01:07:11;;;;;;;6.10;3.80;;;;;;;-0.91;59.88;99530.92;109205;1277;23699;-54
2022/03/07 01:09:41;;;;;;;7.00;3.80;;;;;;;-0.91;59.72;99527.30;109058;1276;139589;-54
2022/03/07 01:12:29;;;;;;;5.30;3.10;;;;;;;-0.91;59.83;99521.92;109023;1277;22290;-54
2022/03/07 01:14:57;;;;;;;6.10;3.70;;;;;;;-0.91;59.58;99519.98;109098;1277;138645;-54
2022/03/07 01:17:26;;;;;;;8.40;3.80;;;;;;;-0.91;59.73;99519.65;109207;1276;24192;-54
2022/03/07 01:19:56;;;;;;;5.60;3.10;;;;;;;-0.92;60.05;99512.73;109076;1277;137695;-55
2022/03/07 01:22:24;;;;;;;7.40;4.60;;;;;;;-0.92;60.17;99512.98;109198;1277;22478;-54
2022/03/07 01:24:52;;;;;;;6.60;3.60;;;;;;;-0.93;60.16;99508.56;109154;1276;22440;-54
2022/03/07 01:27:21;;;;;;;6.90;3.50;;;;;;;-0.93;59.92;99506.14;108867;1277;137286;-54
2022/03/07 01:29:49;;;;;;;5.70;3.70;;;;;;;-0.93;60.10;99504.56;109019;1277;22253;-54
2022/03/07 01:32:17;;;;;;;7.90;3.90;;;;;;;-0.95;60.21;99501.23;109072;1277;137542;-54
2022/03/07 01:34:45;;;;;;;5.20;3.40;;;;;;;-0.95;60.05;99496.05;109217;1277;23734;-55
2022/03/07 01:37:13;;;;;;;6.60;3.70;;;;;;;-0.95;60.12;99494.98;109106;1277;22556;-54
2022/03/07 01:39:41;;;;;;;6.60;3.60;;;;;;;-0.94;60.22;99494.55;108733;1280;137290;-54
2022/03/07 01:42:09;;;;;;;7.30;3.30;;;;;;;-0.95;60.31;99489.30;108977;1277;22564;-54
2022/03/07 01:44:38;;;;;;;6.00;3.20;;;;;;;-0.96;60.33;99496.30;108790;1278;137646;-55
2022/03/07 01:47:06;;;;;;;7.60;3.30;;;;;;;-0.97;60.31;99492.49;109084;1277;22458;-54
2022/03/07 01:49:34;;;;;;;6.90;3.10;;;;;;;-0.97;60.41;99496.48;109011;1277;139237;-55
2022/03/07 01:52:03;;;;;;;6.20;4.00;;;;;;;-0.98;60.14;99494.08;108948;1278;22581;-54
2022/03/07 01:54:34;;;;;;;5.40;3.60;;;;;;;-0.99;60.43;99492.08;108948;1277;22484;-54
2022/03/07 01:57:02;;;;;;;6.10;3.00;;;;;;;-0.99;60.28;99494.79;108847;1277;137409;-54
2022/03/07 01:59:33;;;;;;;6.70;3.30;;;;;;;-0.99;60.70;99495.33;108901;1280;22515;-54
2022/03/07 02:02:01;;;;;;;5.30;3.30;;;;;;;-1.00;60.66;99490.42;108869;1279;138328;-54
2022/03/07 02:04:33;;;;;;;6.60;3.30;;;;;;;-1.01;60.73;99487.33;108927;1277;22509;-55
2022/03/07 02:07:01;;;;;;;5.20;3.50;;;;;;;-1.04;60.81;99486.58;108927;1279;22561;-54
2022/03/07 02:09:37;;;;;;;5.30;3.40;;;;;;;-1.04;60.93;99482.20;108822;1279;137061;-54
2022/03/07 02:12:06;;;;;;;8.90;3.50;;;;;;;-1.06;60.83;99475.92;108961;1278;22423;-54
2022/03/07 02:14:35;;;;;;;5.40;3.20;;;;;;;-1.11;60.66;99465.16;108691;1277;137819;-54
2022/03/07 02:17:04;;;;;;;6.60;3.10;;;;;;;-1.07;60.95;99469.49;108948;1277;22732;-54
2022/03/07 02:19:34;;;;;;;4.20;3.00;;;;;;;-1.10;60.80;99462.13;109010;1277;137172;-55
2022/03/07 02:22:03;;;;;;;5.50;3.40;;;;;;;-1.09;60.76;99460.05;108957;1277;22730;-54
2022/03/07 02:24:34;;;;;;;5.40;3.10;;;;;;;-1.09;60.79;99461.82;109042;1277;22469;-54
2022/03/07 02:27:07;;;;;;;4.50;2.80;;;;;;;-1.09;61.00;99461.19;108984;1277;138363;-54
2022/03/07 02:29:39;;;;;;;4.30;2.70;;;;;;;-1.10;61.07;99459.16;108975;1278;22537;-54
2022/03/07 02:32:10;;;;;;;4.10;2.80;;;;;;;-1.10;61.11;99458.55;108808;1277;138296;-54
2022/03/07 02:34:45;;;;;;;5.60;2.90;;;;;;;-1.10;60.96;99456.15;108967;1277;22414;-54
2022/03/07 02:37:15;;;;;;;6.70;3.00;;;;;;;-1.11;61.35;99456.60;109101;1277;23881;-54
2022/03/07 02:39:47;;;;;;;4.60;2.60;;;;;;;-1.12;61.67;99451.33;108850;1277;137333;-55
2022/03/07 02:42:37;;;;;;;5.50;3.00;;;;;;;-1.12;61.54;99451.02;109082;1277;22516;-54
2022/03/07 02:45:07;;;;;;;5.80;3.00;;;;;;;-1.13;61.23;99448.49;108774;1277;137344;-54
2022/03/07 02:47:35;;;;;;;4.50;2.80;;;;;;;-1.14;61.51;99444.22;108912;1277;22451;-54
2022/03/07 02:50:04;;;;;;;4.30;2.80;;;;;;;-1.13;61.40;99441.50;109019;1277;139019;-54
2022/03/07 02:52:39;;;;;;;4.80;2.90;;;;;;;-1.14;61.36;99440.17;108985;1277;22658;-55
2022/03/07 02:55:08;;;;;;;4.30;3.10;;;;;;;-1.14;61.32;99438.28;109101;1277;22523;-55
2022/03/07 02:57:36;;;;;;;4.70;2.70;;;;;;;-1.14;61.37;99437.01;109003;1277;138138;-55
2022/03/07 03:00:06;;;;;;;4.10;2.90;;;;;;;-1.15;61.51;99439.76;109124;1277;22465;-55
2022/03/07 03:02:34;;;;;;;5.50;3.00;;;;;;;-1.15;61.52;99437.86;108924;1277;138831;-55
2022/03/07 03:05:02;;;;;;;3.90;2.70;;;;;;;-1.16;61.62;99437.05;109127;1277;22543;-55
2022/03/07 03:07:32;;;;;;;5.30;3.90;;;;;;;-1.17;61.55;99432.77;108973;1277;137433;-55
2022/03/07 03:10:00;;;;;;;5.50;3.50;;;;;;;-1.18;61.73;99431.77;109099;1277;22639;-55
2022/03/07 03:12:48;;;;;;;;;;;;;;;-1.21;61.54;99430.16;109102;1277;22484;-55
2022/03/07 03:15:17;;;;;;;;;;;;;;;-1.23;61.51;99432.38;109048;1276;123578;-55
2022/03/07 03:17:45;;;;;;;4.50;2.70;;;;;;;-1.24;61.60;99429.27;109060;1277;22471;-55
2022/03/07 03:20:14;;;;;;;6.40;2.80;;;;;;;-1.24;61.82;99427.88;108976;1277;139539;-55
2022/03/07 03:22:44;;;;;;;5.60;3.20;;;;;;;-1.25;62.00;99426.91;108968;1277;23250;-55
2022/03/07 03:25:14;;;;;;;5.60;3.30;;;;;;;-1.25;61.89;99423.75;109041;1277;22553;-55
2022/03/07 03:27:43;;;;;;;5.00;3.30;;;;;;;-1.26;61.95;99424.19;108932;1277;138161;-55
2022/03/07 03:30:11;;;;;;;6.50;3.70;;;;;;;-1.27;61.62;99420.19;108984;1277;23251;-55
2022/03/07 03:32:40;;;;;;;5.70;3.70;;;;;;;-1.27;61.89;99416.07;108922;1277;138579;-55
2022/03/07 03:35:08;;;;;;;5.70;3.40;;;;;;;-1.27;62.01;99412.34;109004;1279;22557;-55
2022/03/07 03:37:37;;;;;;;6.10;4.40;;;;;;;-1.27;61.94;99408.50;108970;1277;137421;-55
2022/03/07 03:40:09;;;;;;;6.70;3.80;;;;;;;-1.27;61.91;99404.02;107246;1279;25510;-55
2022/03/07 03:42:38;;;;;;;4.30;2.90;;;;;;;-1.30;61.90;99403.15;109048;1277;23042;-55
2022/03/07 03:45:10;;;;;;;6.80;3.40;;;;;;;-1.28;61.92;99401.15;108902;1279;137118;-55
2022/03/07 03:47:39;;;;;;;6.90;3.80;;;;;;;-1.29;61.92;99397.45;109088;1277;23679;-56
2022/03/07 03:50:09;;;;;;;5.60;3.70;;;;;;;-1.29;61.82;99400.14;109008;1277;137285;-55
2022/03/07 03:52:37;;;;;;;4.60;3.60;;;;;;;-1.32;61.70;99391.47;109120;1277;22838;-55
2022/03/07 03:55:06;;;;;;;6.00;3.30;;;;;;;-1.29;61.66;99391.66;109090;1277;22614;-55
2022/03/07 03:57:35;;;;;;;8.00;4.80;;;;;;;-1.32;62.00;99384.11;109003;1277;138894;-55
2022/03/07 04:00:09;;;;;;;7.10;4.00;;;;;;;-1.29;62.01;99385.21;109069;1277;22463;-55
2022/03/07 04:02:42;;;;;;;5.60;3.70;;;;;;;-1.29;62.09;99381.96;109072;1277;138730;-55
2022/03/07 04:05:11;;;;;;;5.90;3.40;;;;;;;-1.27;61.90;99383.54;109219;1277;22284;-55
2022/03/07 04:07:40;;;;;;;6.80;3.40;;;;;;;-1.27;62.10;99380.10;109048;1277;137653;-55
2022/03/07 04:10:09;;;;;;;7.20;3.50;;;;;;;-1.26;62.14;99376.77;109177;1276;22459;-55
2022/03/07 04:12:38;;;;;;;8.20;4.90;;;;;;;-1.26;62.18;99373.00;109074;1277;23337;-55
2022/03/07 04:15:10;;;;;;;10.10;4.90;;;;;;;-1.25;62.33;99373.84;108861;1277;336062;-55
2022/03/07 04:18:53;;;;;;;8.60;4.70;;;;;;;-1.22;62.35;99369.92;101757;1309;546024;-54
2022/03/07 04:21:22;;;;;;;6.30;4.30;;;;;;;-1.25;62.18;99365.45;108074;1284;137722;-55
2022/03/07 04:23:50;;;;;;;6.80;3.90;;;;;;;-1.23;62.17;99364.86;108116;1287;22483;-55
2022/03/07 04:26:18;;;;;;;6.80;4.00;;;;;;;-1.22;62.19;99364.95;108035;1287;136795;-54
2022/03/07 04:28:47;;;;;;;6.60;3.90;;;;;;;-1.25;62.45;99357.07;108107;1287;22683;-55
2022/03/07 04:31:15;;;;;;;7.20;3.90;;;;;;;-1.23;62.37;99356.30;108104;1287;23254;-55
2022/03/07 04:33:43;;;;;;;5.80;3.50;;;;;;;-1.23;62.59;99357.79;108173;1285;153889;-54
2022/03/07 04:36:13;;;;;;;6.20;3.80;;;;;;;-1.24;62.49;99352.11;108385;1285;22466;-55
2022/03/07 04:38:41;;;;;;;6.70;4.00;;;;;;;-1.23;62.56;99347.62;108250;1285;137636;-54
2022/03/07 04:41:09;;;;;;;5.80;3.90;;;;;;;-1.24;62.52;99343.02;108406;1285;22640;-55
2022/03/07 04:43:37;;;;;;;8.30;4.40;;;;;;;-1.24;62.38;99339.80;108241;1285;138102;-55
2022/03/07 04:46:10;;;;;;;7.10;4.10;;;;;;;-1.24;62.73;99335.77;108421;1285;22466;-55
2022/03/07 04:48:38;;;;;;;8.30;4.10;;;;;;;-1.24;62.37;99337.86;108330;1285;22467;-55
2022/03/07 04:51:06;;;;;;;8.40;4.60;;;;;;;-1.24;62.53;99338.11;108291;1285;136739;-53
2022/03/07 04:53:34;;;;;;;9.30;4.80;;;;;;;-1.24;62.77;99335.70;108343;1284;22505;-53
2022/03/07 04:56:03;;;;;;;6.50;4.60;;;;;;;-1.24;62.64;99333.18;108044;1287;136939;-55
2022/03/07 04:58:31;;;;;;;8.00;4.20;;;;;;;-1.24;62.66;99332.33;108218;1287;22465;-58
2022/03/07 05:00:59;;;;;;;8.70;5.10;;;;;;;-1.23;62.64;99330.07;108191;1287;22544;-55
2022/03/07 05:03:28;;;;;;;7.90;4.60;;;;;;;-1.22;62.65;99330.33;108047;1287;137406;-55
2022/03/07 05:05:56;;;;;;;10.90;4.60;;;;;;;-1.22;62.74;99329.27;108090;1287;22493;-55
2022/03/07 05:08:25;;;;;;;7.40;4.20;;;;;;;-1.22;62.80;99331.02;107994;1286;137402;-55
2022/03/07 05:10:53;;;;;;;9.10;5.20;;;;;;;-1.21;62.71;99331.12;108161;1287;22477;-56
2022/03/07 05:13:22;;;;;;;8.30;4.80;;;;;;;-1.21;62.83;99327.67;108813;1280;22542;-55
2022/03/07 05:15:51;;;;;;;7.30;4.80;;;;;;;-1.19;62.76;99322.80;108729;1280;137234;-55
2022/03/07 05:18:21;;;;;;;6.10;4.30;;;;;;;-1.17;62.92;99323.00;108946;1279;22550;-55
2022/03/07 05:20:49;;;;;;;7.90;4.20;;;;;;;-1.16;62.82;99320.21;108735;1279;137243;-55
2022/03/07 05:23:25;;;;;;;6.30;3.80;;;;;;;-1.16;62.60;99314.46;108999;1279;23230;-55
2022/03/07 05:25:53;;;;;;;6.40;4.10;;;;;;;-1.15;62.76;99316.17;108862;1279;137705;-55
2022/03/07 05:28:21;;;;;;;9.30;4.50;;;;;;;-1.14;62.64;99313.51;108828;1281;22453;-55
2022/03/07 05:30:50;;;;;;;8.60;4.90;;;;;;;-1.14;62.68;99309.16;108952;1279;22522;-55
2022/03/07 05:33:18;;;;;;;9.20;5.20;;;;;;;-1.12;62.74;99309.10;108674;1281;136828;-55
2022/03/07 05:35:47;;;;;;;10.00;5.50;;;;;;;-1.10;62.88;99306.23;108969;1279;22434;-55
2022/03/07 05:38:18;;;;;;;11.80;5.60;;;;;;;-1.08;62.67;99305.54;108865;1279;136996;-55
2022/03/07 05:40:46;;;;;;;12.10;6.00;;;;;;;-1.07;62.66;99303.90;108808;1279;22446;-55
2022/03/07 05:43:14;;;;;;;10.50;6.30;;;;;;;-1.06;62.59;99300.70;108991;1279;22396;-55
2022/03/07 05:45:43;;;;;;;12.50;6.60;;;;;;;-1.03;62.54;99300.38;108823;1279;138009;-56
2022/03/07 05:48:12;;;;;;;11.60;6.20;;;;;;;-1.01;62.62;99297.80;108803;1279;22437;-55
2022/03/07 05:50:41;;;;;;;12.20;6.20;;;;;;;-0.99;62.60;99292.61;108892;1279;137248;-55
2022/03/07 05:53:09;;;;;;;11.70;6.50;;;;;;;-0.97;62.36;99297.91;108965;1279;22470;-55
2022/03/07 05:55:38;;;;;;;11.20;6.20;;;;;;;-0.98;62.29;99290.49;108872;1279;137902;-55
2022/03/07 05:58:06;;;;;;;23.40;10.30;;;;;;;-0.96;62.29;99283.27;109016;1278;22415;-55
2022/03/07 06:00:34;;;;;;;17.40;9.50;;;;;;;-0.94;62.61;99279.64;108934;1279;22599;-55
2022/03/07 06:03:02;;;;;;;18.50;9.50;;;;;;;-0.91;62.59;99278.36;108851;1279;137198;-55
2022/03/07 06:05:31;;;;;;;18.90;9.30;;;;;;;-0.88;62.57;99280.00;108994;1279;23229;-56
2022/03/07 06:08:00;;;;;;;29.00;12.20;;;;;;;-0.86;62.64;99279.55;108848;1279;137346;-55
2022/03/07 06:10:28;;;;;;;35.60;16.90;;;;;;;-0.86;62.55;99272.69;108808;1280;22480;-55
2022/03/07 06:13:00;;;;;;;30.00;13.70;;;;;;;-0.81;62.66;99274.39;109019;1278;22514;-55
2022/03/07 06:15:29;;;;;;;27.10;10.90;;;;;;;-0.78;62.52;99269.97;108870;1279;138174;-55
2022/03/07 06:18:18;;;;;;;20.40;8.90;;;;;;;-0.77;62.51;99266.24;108942;1279;22602;-56
2022/03/07 06:20:46;;;;;;;17.20;8.70;;;;;;;-0.75;62.42;99264.62;108845;1279;136944;-58
2022/03/07 06:23:14;;;;;;;28.00;11.00;;;;;;;-0.73;62.35;99263.44;108960;1279;22467;-55
2022/03/07 06:25:43;;;;;;;19.60;9.70;;;;;;;-0.72;62.05;99265.94;108837;1278;137439;-56
2022/03/07 06:28:11;;;;;;;23.50;10.50;;;;;;;-0.71;61.97;99263.89;108995;1279;23270;-55
2022/03/07 06:30:41;;;;;;;17.70;8.30;;;;;;;-0.69;61.99;99266.38;108984;1279;22433;-55
2022/03/07 06:33:09;;;;;;;15.50;7.80;;;;;;;-0.67;61.90;99268.02;108761;1281;138574;-55
2022/03/07 06:35:37;;;;;;;15.40;7.60;;;;;;;-0.65;62.14;99265.29;108947;1279;22492;-56
2022/03/07 06:38:05;;;;;;;19.60;8.70;;;;;;;-0.63;61.68;99264.02;108892;1279;137188;-56
2022/03/07 06:40:33;;;;;;;25.80;11.40;;;;;;;-0.61;61.82;99264.95;108942;1279;23086;-55
2022/03/07 06:43:01;;;;;;;29.90;14.40;;;;;;;-0.61;62.02;99256.92;108994;1279;23090;-56
2022/03/07 06:45:30;;;;;;;19.50;10.30;;;;;;;-0.57;61.75;99259.45;108880;1279;137219;-55
2022/03/07 06:47:59;;;;;;;20.20;9.80;;;;;;;-0.55;61.50;99257.81;108969;1278;23216;-55
2022/03/07 06:50:29;;;;;;;19.90;9.30;;;;;;;-0.55;61.07;99261.32;108857;1279;137414;-55
2022/03/07 06:52:57;;;;;;;18.30;9.50;;;;;;;-0.55;61.15;99259.17;109149;1278;22516;-56
2022/03/07 06:55:25;;;;;;;14.00;8.90;;;;;;;-0.54;61.23;99257.09;109057;1277;22495;-55
2022/03/07 06:57:54;;;;;;;19.80;9.20;;;;;;;-0.52;61.19;99254.15;109007;1278;136921;-55
2022/03/07 07:00:22;;;;;;;21.20;9.30;;;;;;;-0.50;61.12;99253.55;109052;1278;22489;-56
2022/03/07 07:02:50;;;;;;;22.60;10.40;;;;;;;-0.47;61.18;99252.52;109066;1277;138480;-55
2022/03/07 07:05:18;;;;;;;19.30;9.30;;;;;;;-0.44;61.37;99259.03;109125;1277;22446;-55
2022/03/07 07:07:46;;;;;;;15.40;7.50;;;;;;;-0.44;60.97;99258.30;109038;1277;138073;-56
2022/03/07 07:10:17;;;;;;;15.10;8.30;;;;;;;-0.45;60.89;99256.17;109133;1277;22431;-55
2022/03/07 07:12:47;;;;;;;18.60;8.70;;;;;;;-0.44;60.72;99255.13;109102;1277;22441;-55
2022/03/07 07:15:15;;;;;;;23.30;10.50;;;;;;;-0.42;60.68;99254.14;109020;1277;137943;-55
2022/03/07 07:17:45;;;;;;;20.70;10.40;;;;;;;-0.38;60.88;99252.08;109135;1277;22472;-56
2022/03/07 07:20:13;;;;;;;26.30;10.70;;;;;;;-0.34;60.52;99250.21;108954;1277;138751;-56
2022/03/07 07:22:41;;;;;;;22.30;10.20;;;;;;;-0.32;60.51;99249.79;109140;1278;22597;-56
2022/03/07 07:25:09;;;;;;;24.20;10.90;;;;;;;-0.33;60.40;99242.89;109114;1278;22603;-55
2022/03/07 07:27:38;;;;;;;28.80;11.40;;;;;;;-0.33;60.52;99235.94;109030;1278;139074;-56
2022/03/07 07:30:11;;;;;;;21.30;10.90;;;;;;;-0.28;60.59;99239.51;109118;1278;22457;-55
2022/03/07 07:32:46;;;;;;;22.20;10.30;;;;;;;-0.24;60.71;99234.96;109016;1277;137469;-55
2022/03/07 07:35:14;;;;;;;24.60;10.70;;;;;;;-0.20;60.48;99235.63;109105;1278;22531;-55
2022/03/07 07:37:42;;;;;;;25.20;10.00;;;;;;;-0.13;60.22;99235.48;109018;1278;138788;-55
2022/03/07 07:40:10;;;;;;;18.60;9.60;;;;;;;-0.12;59.84;99236.27;109107;1278;22530;-56
2022/03/07 07:42:38;;;;;;;24.50;10.90;;;;;;;-0.14;59.81;99233.73;109160;1278;22368;-55
2022/03/07 07:45:09;;;;;;;27.70;12.90;;;;;;;-0.13;59.84;99227.61;108985;1278;138797;-55
2022/03/07 07:47:38;;;;;;;18.20;9.90;;;;;;;-0.09;60.18;99229.09;109134;1277;23712;-55
2022/03/07 07:50:08;;;;;;;17.30;9.30;;;;;;;-0.03;59.93;99230.04;109055;1277;139231;-55
2022/03/07 07:52:37;;;;;;;16.70;9.30;;;;;;;0.02;59.82;99226.96;109200;1278;22404;-55
2022/03/07 07:55:23;;;;;;;23.00;11.30;;;;;;;0.10;59.85;99227.11;108745;1277;25262;-54
2022/03/07 07:57:51;;;;;;;22.00;10.70;;;;;;;0.16;59.72;99224.20;104596;1278;137529;-54
2022/03/07 08:00:20;;;;;;;28.50;11.60;;;;;;;0.21;59.74;99223.70;104718;1278;29676;-55
2022/03/07 08:02:49;;;;;;;21.80;10.20;;;;;;;0.27;59.60;99223.31;108905;1278;137681;-55
2022/03/07 08:05:17;;;;;;;19.60;10.40;;;;;;;0.30;59.40;99225.38;109169;1277;22586;-55
2022/03/07 08:07:46;;;;;;;17.70;8.50;;;;;;;0.35;59.31;99224.75;108922;1277;137372;-55
2022/03/07 08:10:15;;;;;;;13.50;7.60;;;;;;;0.37;58.93;99223.60;109169;1277;22533;-55
2022/03/07 08:12:44;;;;;;;11.30;7.10;;;;;;;0.38;58.70;99228.22;109166;1277;22465;-55
2022/03/07 08:15:18;;;;;;;15.50;9.10;;;;;;;0.34;58.73;99223.10;109035;1278;138002;-55
2022/03/07 08:17:50;;;;;;;15.50;7.20;;;;;;;0.35;58.51;99219.05;108886;1278;22524;-54
2022/03/07 08:20:23;;;;;;;10.30;6.20;;;;;;;0.36;58.54;99219.48;108986;1277;137950;-54
2022/03/07 08:22:51;;;;;;;20.20;9.90;;;;;;;0.36;58.52;99217.87;109148;1277;22583;-55
2022/03/07 08:25:20;;;;;;;14.70;7.10;;;;;;;0.38;58.41;99221.96;109168;1277;23226;-55
2022/03/07 08:27:49;;;;;;;17.80;8.90;;;;;;;0.39;58.54;99223.00;109034;1277;138744;-55
2022/03/07 08:30:18;;;;;;;44.20;15.40;;;;;;;0.40;58.65;99218.10;109010;1277;22481;-55
2022/03/07 08:32:47;;;;;;;37.60;14.40;;;;;;;0.43;58.73;99217.80;109011;1277;137244;-55
2022/03/07 08:35:15;;;;;;;23.20;9.90;;;;;;;0.48;58.81;99221.70;109160;1277;22704;-55
2022/03/07 08:37:45;;;;;;;21.20;9.10;;;;;;;0.50;58.52;99220.31;108976;1277;138619;-55
2022/03/07 08:40:14;;;;;;;25.30;9.20;;;;;;;0.51;58.42;99219.66;109117;1277;23365;-55
2022/03/07 08:42:43;;;;;;;20.20;9.90;;;;;;;0.54;58.26;99222.44;109150;1277;22633;-55
2022/03/07 08:45:19;;;;;;;11.20;6.20;;;;;;;0.57;58.13;99224.92;109005;1277;137821;-55
2022/03/07 08:47:55;;;;;;;10.70;5.50;;;;;;;0.59;58.24;99226.52;109084;1277;22470;-55
2022/03/07 08:50:23;;;;;;;15.20;6.60;;;;;;;0.62;57.91;99224.96;109013;1277;138616;-56
2022/03/07 08:52:53;;;;;;;11.10;6.10;;;;;;;0.58;57.22;99225.23;109128;1277;22264;-55
2022/03/07 08:55:21;;;;;;;11.10;6.20;;;;;;;0.57;57.63;99227.19;108987;1278;22271;-55
2022/03/07 08:57:49;;;;;;;12.90;7.00;;;;;;;0.61;58.00;99225.70;109014;1277;137847;-56
2022/03/07 09:00:18;;;;;;;9.40;5.50;;;;;;;0.64;57.38;99227.95;109145;1277;22438;-55
2022/03/07 09:02:47;;;;;;;10.20;5.80;;;;;;;0.67;57.29;99225.57;108915;1278;138019;-55
2022/03/07 09:05:16;;;;;;;11.40;6.00;;;;;;;0.66;57.20;99225.52;108970;1278;22577;-55
2022/03/07 09:07:44;;;;;;;12.00;5.50;;;;;;;0.65;57.03;99227.09;109011;1277;138798;-56
2022/03/07 09:10:16;;;;;;;9.20;5.80;;;;;;;0.64;56.82;99229.14;109125;1277;22613;-55
2022/03/07 09:12:46;;;;;;;11.80;6.30;;;;;;;0.65;56.94;99226.19;109181;1277;22426;-55
2022/03/07 09:15:14;;;;;;;12.90;6.50;;;;;;;0.68;57.12;99223.52;109016;1277;138050;-55
2022/03/07 09:17:44;;;;;;;9.50;5.70;;;;;;;0.72;56.96;99226.70;109185;1277;22469;-55
2022/03/07 09:20:13;;;;;;;8.20;5.70;;;;;;;0.77;56.69;99227.66;109058;1277;137598;-55
2022/03/07 09:22:41;;;;;;;13.20;6.90;;;;;;;0.78;56.43;99230.34;109191;1277;22523;-55
2022/03/07 09:25:08;;;;;;;10.10;5.80;;;;;;;0.79;56.52;99228.41;109128;1277;22442;-55
2022/03/07 09:27:36;;;;;;;11.70;6.30;;;;;;;0.81;55.76;99231.39;109030;1276;138306;-55
2022/03/07 09:30:06;;;;;;;10.40;5.90;;;;;;;0.79;55.01;99229.64;109185;1277;22778;-55
2022/03/07 09:32:34;;;;;;;10.80;6.10;;;;;;;0.76;55.24;99228.55;108897;1277;137206;-55
2022/03/07 09:35:03;;;;;;;8.40;5.80;;;;;;;0.75;55.26;99227.40;109132;1277;22621;-55
2022/03/07 09:37:38;;;;;;;10.80;6.30;;;;;;;0.75;55.11;99227.89;109062;1277;137319;-55
2022/03/07 09:40:07;;;;;;;9.60;5.90;;;;;;;0.75;55.38;99224.39;109159;1277;22570;-55
2022/03/07 09:42:35;;;;;;;7.80;5.10;;;;;;;0.76;55.04;99227.41;109203;1277;22491;-55
2022/03/07 09:45:10;;;;;;;12.10;6.20;;;;;;;0.77;54.24;99222.66;109050;1277;137730;-56
2022/03/07 09:47:39;;;;;;;13.60;6.20;;;;;;;0.74;54.12;99222.61;109147;1277;22418;-55
2022/03/07 09:50:09;;;;;;;11.20;5.60;;;;;;;0.74;54.22;99218.32;109069;1277;138173;-56
2022/03/07 09:52:37;;;;;;;10.30;5.70;;;;;;;0.76;53.70;99216.52;109027;1277;22591;-55
2022/03/07 09:55:07;;;;;;;8.60;5.00;;;;;;;0.75;53.90;99220.39;109148;1277;23193;-55
2022/03/07 09:57:35;;;;;;;8.70;5.60;;;;;;;0.74;53.25;99223.02;109036;1277;137165;-54
2022/03/07 10:00:04;;;;;;;10.80;6.50;;;;;;;0.70;53.28;99223.23;109209;1277;23077;-54
2022/03/07 10:02:34;;;;;;;15.00;6.70;;;;;;;0.69;53.95;99215.27;109090;1277;138653;-55
2022/03/07 10:05:04;;;;;;;10.30;6.10;;;;;;;0.72;54.16;99212.92;109133;1277;22427;-56
2022/03/07 10:07:44;;;;;;;8.70;5.90;;;;;;;0.79;54.21;99210.79;104681;1278;137405;-55
2022/03/07 10:10:13;;;;;;;13.90;6.80;;;;;;;0.86;54.23;99211.21;104806;1278;22604;-55
2022/03/07 10:12:50;;;;;;;11.70;6.10;;;;;;;0.90;54.45;99202.06;104719;1278;24259;-55
2022/03/07 10:15:20;;;;;;;13.20;7.20;;;;;;;0.94;54.13;99197.45;109069;1277;137121;-55
2022/03/07 10:17:52;;;;;;;14.60;6.00;;;;;;;0.98;53.93;99197.10;108993;1277;22488;-55
2022/03/07 10:20:21;;;;;;;11.00;6.10;;;;;;;0.98;53.91;99194.41;109010;1277;138196;-56
2022/03/07 10:22:52;;;;;;;9.60;6.00;;;;;;;0.99;54.22;99195.73;109080;1277;22481;-56
2022/03/07 10:25:27;;;;;;;9.90;4.80;;;;;;;1.01;53.96;99194.11;109191;1277;22459;-54
2022/03/07 10:28:00;;;;;;;13.90;7.30;;;;;;;1.01;53.06;99190.98;108935;1277;138624;-56
2022/03/07 10:30:30;;;;;;;12.50;7.10;;;;;;;0.97;53.33;99191.23;109116;1277;22459;-55
2022/03/07 10:33:00;;;;;;;13.70;8.40;;;;;;;0.88;53.83;99192.19;109042;1277;138058;-55
2022/03/07 10:35:30;;;;;;;13.20;7.70;;;;;;;0.83;54.29;99189.89;109162;1277;22410;-55
2022/03/07 10:38:21;;;;;;;13.80;7.90;;;;;;;0.78;53.56;99189.38;109109;1277;138312;-55
2022/03/07 10:40:53;;;;;;;12.50;8.30;;;;;;;0.71;53.89;99185.86;109183;1277;22449;-55
2022/03/07 10:43:23;;;;;;;17.60;10.10;;;;;;;0.66;54.25;99187.79;109109;1277;22664;-54
2022/03/07 10:45:53;;;;;;;22.30;9.60;;;;;;;0.62;54.35;99186.33;109033;1277;137622;-55
2022/03/07 10:48:26;;;;;;;9.40;6.70;;;;;;;0.58;54.30;99184.88;109130;1277;22452;-54
2022/03/07 10:50:58;;;;;;;13.10;8.60;;;;;;;0.55;54.17;99185.00;109005;1277;137339;-55
2022/03/07 10:53:26;;;;;;;14.10;7.80;;;;;;;0.51;54.70;99184.28;108978;1280;22593;-55
2022/03/07 10:55:59;;;;;;;11.80;6.50;;;;;;;0.50;54.43;99189.05;109006;1277;138226;-54
2022/03/07 10:58:28;;;;;;;14.20;6.80;;;;;;;0.48;54.41;99188.40;109126;1277;22438;-55
2022/03/07 11:01:00;;;;;;;10.10;6.70;;;;;;;0.49;54.38;99188.48;109155;1277;22517;-55
2022/03/07 11:03:30;;;;;;;9.30;6.20;;;;;;;0.50;53.91;99187.12;109010;1277;137620;-55
2022/03/07 11:06:02;;;;;;;10.80;6.30;;;;;;;0.48;54.18;99180.96;109185;1277;22552;-55
2022/03/07 11:08:30;;;;;;;12.90;7.90;;;;;;;0.41;54.02;99172.16;109073;1277;137599;-55
2022/03/07 11:11:18;;;;;;;14.80;8.50;;;;;;;0.45;54.70;99177.94;109162;1277;22569;-55
2022/03/07 11:13:51;;;;;;;14.40;7.70;;;;;;;0.45;54.70;99172.05;108881;1277;137674;-54
2022/03/07 11:16:21;;;;;;;15.80;9.00;;;;;;;0.48;54.46;99173.79;106891;1278;24514;-55
2022/03/07 11:18:54;;;;;;;13.20;8.40;;;;;;;0.46;54.52;99171.39;109235;1277;22507;-55
2022/03/07 11:21:29;;;;;;;11.90;6.20;;;;;;;0.47;54.51;99171.97;109082;1277;139311;-55
2022/03/07 11:23:57;;;;;;;9.70;5.50;;;;;;;0.48;54.62;99164.68;109141;1277;23415;-55
2022/03/07 11:26:26;;;;;;;12.20;6.80;;;;;;;0.51;54.58;99164.98;108918;1277;138708;-55
2022/03/07 11:28:57;;;;;;;9.60;6.10;;;;;;;0.55;54.42;99162.12;109028;1277;22264;-55
2022/03/07 11:31:26;;;;;;;9.90;6.40;;;;;;;0.58;54.45;99156.75;109165;1277;22605;-55
2022/03/07 11:33:55;;;;;;;11.40;6.50;;;;;;;0.62;54.64;99150.90;108863;1277;137624;-55